Time;durP1;ratioP1;P1;durP2;ratioP2;P2;SDS_P1;SDS_P2;PMS_P1;PMS_P2;Temp;Humidity;BMP_temperature;BMP_pressure;BME280_temperature;BME280_humidity;BME280_pressure;Samples;Min_cycle;Max_cycle;Signal;HPM_P1;HPM_P2
2022/12/23 00:01:25;;;;;;;16.27;5.97;;;;;;;;;;5015761;28;20306;-72
2022/12/23 00:03:52;;;;;;;17.20;4.90;;;;;;;;;;4993520;28;20184;-72
2022/12/23 00:06:20;;;;;;;9.90;3.90;;;;;;;;;;4999815;28;20188;-71
2022/12/23 00:08:46;;;;;;;13.97;4.83;;;;;;;;;;5002301;28;20249;-72
2022/12/23 00:11:15;;;;;;;11.30;3.10;;;;;;;;;;5002854;28;20207;-72
2022/12/23 00:16:26;;;;;;;8.27;2.80;;;;;;;;;;4998284;28;20183;-72
2022/12/23 00:18:53;;;;;;;8.30;2.60;;;;;;;;;;5000681;28;20856;-71
2022/12/23 00:21:20;;;;;;;9.37;2.70;;;;;;;;;;4997661;28;20272;-72
2022/12/23 00:23:47;;;;;;;6.13;2.30;;;;;;;;;;5005747;28;20190;-72
2022/12/23 00:26:15;;;;;;;6.93;2.40;;;;;;;;;;5001851;28;20202;-72
2022/12/23 00:28:41;;;;;;;5.17;2.20;;;;;;;;;;5003879;28;20191;-71
2022/12/23 00:31:07;;;;;;;3.13;1.80;;;;;;;;;;5001845;28;20218;-74
2022/12/23 00:33:37;;;;;;;5.30;2.00;;;;;;;;;;5005960;28;20447;-72
2022/12/23 00:36:11;;;;;;;6.50;2.10;;;;;;;;;;5001327;28;20218;-74
2022/12/23 00:44:07;;;;;;;8.03;2.20;;;;;;;;;;5001118;28;20240;-72
2022/12/23 00:46:33;;;;;;;5.23;1.87;;;;;;;;;;5006851;28;20342;-71
2022/12/23 00:51:44;;;;;;;6.70;2.13;;;;;;;;;;5014696;28;20225;-73
2022/12/23 00:54:10;;;;;;;4.90;2.00;;;;;;;;;;5022629;28;20233;-72
2022/12/23 00:56:36;;;;;;;5.83;2.23;;;;;;;;;;5009343;28;20179;-73
2022/12/23 00:59:02;;;;;;;4.07;2.00;;;;;;;;;;5006893;28;20183;-73
2022/12/23 01:07:00;;;;;;;4.07;2.10;;;;;;;;;;5010762;28;20276;-71
2022/12/23 01:09:26;;;;;;;6.20;2.20;;;;;;;;;;5010157;28;20180;-72
2022/12/23 01:11:52;;;;;;;6.60;2.50;;;;;;;;;;5010584;28;20776;-72
2022/12/23 01:14:19;;;;;;;4.50;2.10;;;;;;;;;;5017464;28;20567;-71
2022/12/23 01:16:46;;;;;;;5.13;2.23;;;;;;;;;;5011891;28;20186;-72
2022/12/23 01:19:12;;;;;;;5.17;2.10;;;;;;;;;;5005826;28;20191;-71
2022/12/23 01:21:39;;;;;;;4.07;2.00;;;;;;;;;;5011267;28;20207;-71
2022/12/23 01:24:05;;;;;;;4.67;1.90;;;;;;;;;;5005662;28;20206;-72
2022/12/23 01:26:31;;;;;;;6.17;2.40;;;;;;;;;;5011405;28;20179;-72
2022/12/23 01:28:58;;;;;;;4.73;2.10;;;;;;;;;;5007042;28;20194;-74
2022/12/23 01:31:25;;;;;;;4.67;2.20;;;;;;;;;;5002815;28;20200;-71
2022/12/23 01:33:51;;;;;;;6.70;2.53;;;;;;;;;;5006204;28;20304;-72
2022/12/23 01:36:17;;;;;;;3.77;2.30;;;;;;;;;;5012217;28;20175;-72
2022/12/23 01:38:44;;;;;;;5.50;2.80;;;;;;;;;;5016339;28;20247;-74
2022/12/23 01:42:42;;;;;;;7.70;2.93;;;;;;;;;;5010631;28;20207;-72
2022/12/23 01:44:02;;;;;;;3.60;2.00;;;;;;;;;;5010308;28;20233;-72
2022/12/23 01:46:28;;;;;;;4.20;2.37;;;;;;;;;;5008081;28;20186;-72
2022/12/23 01:48:55;;;;;;;5.87;2.23;;;;;;;;;;4996513;28;20183;-71
2022/12/23 01:51:26;;;;;;;5.33;2.47;;;;;;;;;;5001571;28;20203;-73
2022/12/23 01:53:54;;;;;;;5.13;2.30;;;;;;;;;;5007980;28;20206;-73
2022/12/23 01:56:29;;;;;;;4.63;2.40;;;;;;;;;;5008965;28;20190;-73
2022/12/23 01:58:55;;;;;;;4.60;2.30;;;;;;;;;;4994297;28;20187;-72
2022/12/23 02:04:08;;;;;;;4.87;2.47;;;;;;;;;;5003006;28;20191;-71
2022/12/23 02:09:21;;;;;;;6.47;3.50;;;;;;;;;;5000305;28;20263;-71
2022/12/23 02:11:51;;;;;;;6.17;3.47;;;;;;;;;;5006079;28;20617;-71
2022/12/23 02:17:20;;;;;;;3.90;2.70;;;;;;;;;;5004645;28;20207;-73
2022/12/23 02:20:05;;;;;;;5.00;3.00;;;;;;;;;;5006486;28;20202;-72
2022/12/23 02:22:50;;;;;;;3.93;2.57;;;;;;;;;;5007529;28;20215;-72
2022/12/23 02:25:24;;;;;;;3.83;2.60;;;;;;;;;;5003927;28;20183;-71
2022/12/23 02:27:53;;;;;;;4.63;2.60;;;;;;;;;;5015176;28;20650;-71
2022/12/23 02:30:19;;;;;;;6.20;2.53;;;;;;;;;;5004581;28;20187;-73
2022/12/23 02:33:00;;;;;;;6.33;2.73;;;;;;;;;;5005366;28;20878;-74
2022/12/23 02:35:38;;;;;;;5.10;2.50;;;;;;;;;;5003849;28;20198;-72
2022/12/23 02:38:18;;;;;;;5.30;2.50;;;;;;;;;;5003768;28;20739;-73
2022/12/23 02:40:56;;;;;;;4.03;2.67;;;;;;;;;;5005456;28;20598;-71
2022/12/23 02:43:26;;;;;;;4.37;2.47;;;;;;;;;;5005426;28;20295;-71
2022/12/23 02:45:55;;;;;;;3.67;2.80;;;;;;;;;;5001174;28;20184;-71
2022/12/23 02:48:31;;;;;;;3.77;2.77;;;;;;;;;;5002193;28;20620;-71
2022/12/23 02:50:57;;;;;;;3.93;3.00;;;;;;;;;;4999708;28;20178;-71
2022/12/23 02:53:26;;;;;;;3.97;2.83;;;;;;;;;;5003387;28;20179;-71
2022/12/23 02:55:54;;;;;;;4.97;2.57;;;;;;;;;;5016554;28;20635;-72
2022/12/23 02:58:22;;;;;;;4.50;2.53;;;;;;;;;;4994377;28;20607;-72
2022/12/23 03:00:49;;;;;;;3.30;2.40;;;;;;;;;;4996891;28;20726;-71
2022/12/23 03:03:16;;;;;;;3.50;2.53;;;;;;;;;;5014734;28;20209;-71
2022/12/23 03:05:43;;;;;;;4.90;2.40;;;;;;;;;;5018822;28;20187;-71
2022/12/23 03:08:30;;;;;;;4.53;3.10;;;;;;;;;;5021510;28;20790;-71
2022/12/23 03:11:08;;;;;;;3.80;2.70;;;;;;;;;;4999853;28;20206;-72
2022/12/23 03:13:34;;;;;;;4.03;2.73;;;;;;;;;;5006158;28;20554;-71
2022/12/23 03:16:08;;;;;;;3.13;2.70;;;;;;;;;;5005782;28;20232;-71
2022/12/23 03:18:52;;;;;;;4.90;3.30;;;;;;;;;;5016300;28;20221;-71
2022/12/23 03:21:31;;;;;;;3.43;2.77;;;;;;;;;;5008450;28;20708;-71
2022/12/23 03:24:00;;;;;;;4.80;3.10;;;;;;;;;;5000530;28;20184;-71
2022/12/23 03:26:30;;;;;;;5.33;3.17;;;;;;;;;;5002746;28;20191;-72
2022/12/23 03:28:56;;;;;;;4.33;3.07;;;;;;;;;;5006358;28;20201;-73
2022/12/23 03:31:24;;;;;;;3.70;2.80;;;;;;;;;;5006080;28;20221;-71
2022/12/23 03:33:53;;;;;;;3.10;2.73;;;;;;;;;;5009232;28;20190;-72
2022/12/23 03:36:28;;;;;;;5.20;3.53;;;;;;;;;;5011943;28;20270;-72
2022/12/23 03:38:55;;;;;;;3.97;3.00;;;;;;;;;;5010078;28;20289;-71
2022/12/23 03:41:26;;;;;;;5.93;3.00;;;;;;;;;;5000537;28;20258;-72
2022/12/23 03:43:54;;;;;;;6.10;3.37;;;;;;;;;;5005998;28;20698;-73
2022/12/23 03:46:44;;;;;;;12.53;7.97;;;;;;;;;;5010911;28;20170;-72
2022/12/23 03:49:16;;;;;;;6.63;4.60;;;;;;;;;;4997072;28;20278;-71
2022/12/23 03:51:46;;;;;;;5.07;3.90;;;;;;;;;;5008440;28;20777;-72
2022/12/23 03:54:17;;;;;;;6.00;4.20;;;;;;;;;;5009499;28;20578;-71
2022/12/23 03:56:46;;;;;;;4.33;3.40;;;;;;;;;;5015073;28;20201;-72
2022/12/23 03:59:27;;;;;;;5.43;3.83;;;;;;;;;;5014832;28;20231;-71
2022/12/23 04:02:11;;;;;;;7.77;3.73;;;;;;;;;;5005460;28;20206;-72
2022/12/23 04:04:44;;;;;;;5.10;3.47;;;;;;;;;;5001896;28;20180;-71
2022/12/23 04:07:13;;;;;;;4.70;2.97;;;;;;;;;;5005204;28;20199;-71
2022/12/23 04:09:39;;;;;;;4.07;3.10;;;;;;;;;;5007429;28;20287;-72
2022/12/23 04:12:06;;;;;;;6.03;3.57;;;;;;;;;;5009034;28;20210;-73
2022/12/23 04:14:33;;;;;;;4.37;3.10;;;;;;;;;;5008029;28;20253;-74
2022/12/23 04:16:59;;;;;;;5.43;3.60;;;;;;;;;;5006526;28;20194;-71
2022/12/23 04:19:26;;;;;;;5.70;3.73;;;;;;;;;;5005081;28;20179;-73
2022/12/23 04:21:55;;;;;;;4.33;3.57;;;;;;;;;;5001515;28;20207;-71
2022/12/23 04:24:21;;;;;;;5.37;3.77;;;;;;;;;;5010920;28;20237;-72
2022/12/23 04:26:47;;;;;;;7.20;3.70;;;;;;;;;;5005172;28;20184;-71
2022/12/23 04:29:14;;;;;;;5.50;4.13;;;;;;;;;;4999353;28;20686;-72
2022/12/23 04:31:40;;;;;;;5.97;4.03;;;;;;;;;;5005653;28;20297;-71
2022/12/23 04:34:06;;;;;;;4.30;3.83;;;;;;;;;;5005109;28;20563;-71
2022/12/23 04:36:32;;;;;;;6.67;4.20;;;;;;;;;;5007543;28;20194;-71
2022/12/23 04:38:58;;;;;;;4.27;3.63;;;;;;;;;;5000919;28;20191;-72
2022/12/23 04:41:25;;;;;;;7.90;5.07;;;;;;;;;;5004177;28;20772;-71
2022/12/23 04:43:51;;;;;;;6.57;4.40;;;;;;;;;;5005733;28;20176;-71
2022/12/23 04:46:17;;;;;;;5.50;4.40;;;;;;;;;;5004432;28;20179;-71
2022/12/23 04:48:43;;;;;;;5.07;4.30;;;;;;;;;;5003606;28;20171;-71
2022/12/23 04:51:09;;;;;;;6.00;4.10;;;;;;;;;;5004025;28;20593;-71
2022/12/23 04:53:36;;;;;;;5.67;4.57;;;;;;;;;;5005204;28;20234;-71
2022/12/23 04:56:02;;;;;;;6.13;4.43;;;;;;;;;;5013787;28;20182;-72
2022/12/23 04:58:28;;;;;;;6.37;4.70;;;;;;;;;;5000670;28;20179;-71
2022/12/23 05:01:01;;;;;;;6.47;4.30;;;;;;;;;;5004677;28;20250;-71
2022/12/23 05:03:27;;;;;;;5.43;4.50;;;;;;;;;;5001694;28;20647;-73
2022/12/23 05:05:53;;;;;;;4.33;3.70;;;;;;;;;;5005940;28;20215;-72
2022/12/23 05:08:20;;;;;;;5.93;4.65;;;;;;;;;;5001456;28;20439;-72
2022/12/23 05:10:46;;;;;;;4.70;3.90;;;;;;;;;;5000988;28;20227;-71
2022/12/23 05:13:12;;;;;;;6.18;4.13;;;;;;;;;;5012833;28;20791;-71
2022/12/23 05:15:38;;;;;;;4.30;3.40;;;;;;;;;;5015850;28;20192;-71
2022/12/23 05:18:04;;;;;;;5.47;3.70;;;;;;;;;;5004038;28;20195;-71
2022/12/23 05:20:30;;;;;;;4.97;3.10;;;;;;;;;;5004261;28;20183;-72
2022/12/23 05:22:56;;;;;;;4.47;3.47;;;;;;;;;;5014879;28;20718;-72
2022/12/23 05:25:22;;;;;;;4.57;3.20;;;;;;;;;;5015473;28;20180;-72
2022/12/23 05:27:49;;;;;;;4.47;3.70;;;;;;;;;;5005328;28;20182;-72
2022/12/23 05:30:15;;;;;;;4.53;3.00;;;;;;;;;;5003627;28;20230;-71
2022/12/23 05:32:41;;;;;;;4.33;3.40;;;;;;;;;;5008151;28;20203;-71
2022/12/23 05:35:07;;;;;;;4.33;3.20;;;;;;;;;;5021266;28;20190;-71
2022/12/23 05:37:33;;;;;;;4.90;3.13;;;;;;;;;;5004260;28;20187;-71
2022/12/23 05:40:00;;;;;;;4.17;3.40;;;;;;;;;;5004702;28;20704;-72
2022/12/23 05:42:26;;;;;;;4.30;2.93;;;;;;;;;;4997733;28;21016;-72
2022/12/23 05:44:52;;;;;;;4.43;3.27;;;;;;;;;;5005016;28;20589;-72
2022/12/23 05:47:18;;;;;;;3.20;2.60;;;;;;;;;;5004167;28;20187;-74
2022/12/23 05:49:44;;;;;;;3.73;2.70;;;;;;;;;;5003043;28;20628;-74
2022/12/23 05:52:10;;;;;;;3.40;2.60;;;;;;;;;;5001505;28;20307;-73
2022/12/23 05:54:37;;;;;;;4.53;2.93;;;;;;;;;;5011226;28;20192;-72
2022/12/23 05:57:03;;;;;;;4.43;2.60;;;;;;;;;;5009740;28;20179;-71
2022/12/23 05:59:29;;;;;;;4.77;2.80;;;;;;;;;;5000554;28;20299;-71
2022/12/23 06:01:55;;;;;;;4.67;3.10;;;;;;;;;;5002998;28;21131;-72
2022/12/23 06:04:21;;;;;;;2.93;2.57;;;;;;;;;;5004049;28;20179;-72
2022/12/23 06:06:47;;;;;;;4.23;2.60;;;;;;;;;;5006949;28;20186;-72
2022/12/23 06:09:13;;;;;;;4.97;2.70;;;;;;;;;;5004268;28;20179;-72
2022/12/23 06:11:39;;;;;;;4.23;2.50;;;;;;;;;;5005072;28;20202;-72
2022/12/23 06:14:06;;;;;;;3.07;2.27;;;;;;;;;;5003811;28;20220;-72
2022/12/23 06:16:32;;;;;;;3.53;2.10;;;;;;;;;;4997333;28;20192;-71
2022/12/23 06:18:58;;;;;;;4.33;2.23;;;;;;;;;;5002531;28;20183;-71
2022/12/23 06:21:24;;;;;;;3.33;2.27;;;;;;;;;;5003874;28;20298;-71
2022/12/23 06:23:51;;;;;;;2.30;1.90;;;;;;;;;;4999444;28;20187;-71
2022/12/23 06:26:17;;;;;;;3.30;2.10;;;;;;;;;;5014500;28;20272;-72
2022/12/23 06:28:43;;;;;;;2.10;1.90;;;;;;;;;;5025581;28;20179;-71
2022/12/23 06:31:09;;;;;;;4.33;2.50;;;;;;;;;;5009622;28;20738;-71
2022/12/23 06:33:35;;;;;;;2.75;2.10;;;;;;;;;;5008370;28;20903;-71
2022/12/23 06:36:02;;;;;;;2.33;1.60;;;;;;;;;;5008756;28;20723;-73
2022/12/23 06:38:28;;;;;;;3.53;1.60;;;;;;;;;;5005919;28;20219;-72
2022/12/23 06:40:54;;;;;;;2.43;1.50;;;;;;;;;;5007036;28;20271;-72
2022/12/23 06:43:20;;;;;;;2.00;1.80;;;;;;;;;;5005787;28;20199;-71
2022/12/23 06:45:47;;;;;;;1.80;1.70;;;;;;;;;;5002284;28;20192;-71
2022/12/23 06:48:14;;;;;;;2.47;1.77;;;;;;;;;;5005348;28;20191;-73
2022/12/23 06:50:40;;;;;;;1.70;1.60;;;;;;;;;;5005543;28;20222;-72
2022/12/23 06:53:07;;;;;;;1.70;1.60;;;;;;;;;;5004779;28;20304;-73
2022/12/23 06:55:33;;;;;;;2.27;1.80;;;;;;;;;;5005587;28;20187;-72
2022/12/23 06:57:59;;;;;;;2.57;2.00;;;;;;;;;;5003816;28;20183;-72
2022/12/23 07:00:25;;;;;;;2.77;1.80;;;;;;;;;;5003731;28;20568;-71
2022/12/23 07:02:55;;;;;;;3.13;1.87;;;;;;;;;;5010938;28;20810;-71
2022/12/23 07:05:21;;;;;;;3.33;2.00;;;;;;;;;;5001142;28;20229;-71
2022/12/23 07:07:47;;;;;;;2.27;1.83;;;;;;;;;;4993786;28;20176;-77
2022/12/23 07:10:13;;;;;;;2.00;1.80;;;;;;;;;;5011518;28;20599;-73
2022/12/23 07:12:39;;;;;;;2.70;1.90;;;;;;;;;;5006598;28;20234;-75
2022/12/23 07:15:06;;;;;;;4.10;2.00;;;;;;;;;;5001447;28;20191;-74
2022/12/23 07:17:32;;;;;;;2.63;2.10;;;;;;;;;;4996443;28;20179;-74
2022/12/23 07:19:59;;;;;;;2.60;2.30;;;;;;;;;;5002496;28;20270;-74
2022/12/23 07:22:25;;;;;;;3.20;2.53;;;;;;;;;;4995243;28;20211;-73
2022/12/23 07:24:51;;;;;;;3.13;2.63;;;;;;;;;;4998140;28;20187;-74
2022/12/23 07:27:17;;;;;;;3.27;2.50;;;;;;;;;;4996701;28;20176;-73
2022/12/23 07:29:43;;;;;;;2.93;2.40;;;;;;;;;;5000359;28;20368;-74
2022/12/23 07:32:09;;;;;;;5.53;2.80;;;;;;;;;;4998661;28;20202;-74
2022/12/23 07:34:36;;;;;;;2.47;2.27;;;;;;;;;;4997603;28;20191;-74
2022/12/23 07:37:02;;;;;;;3.33;2.43;;;;;;;;;;4997178;28;20183;-74
2022/12/23 07:39:28;;;;;;;3.27;2.83;;;;;;;;;;5000724;28;20209;-76
2022/12/23 07:41:54;;;;;;;3.80;2.70;;;;;;;;;;4995114;28;20301;-75
2022/12/23 07:44:20;;;;;;;5.30;3.20;;;;;;;;;;5005516;28;20196;-75
2022/12/23 07:46:46;;;;;;;4.70;2.90;;;;;;;;;;4995390;28;20707;-73
2022/12/23 07:49:13;;;;;;;3.93;3.40;;;;;;;;;;4999234;28;20170;-75
2022/12/23 07:51:39;;;;;;;10.93;8.77;;;;;;;;;;4997860;28;20210;-74
2022/12/23 07:54:05;;;;;;;15.13;10.83;;;;;;;;;;4997706;28;20844;-76
2022/12/23 07:56:31;;;;;;;22.87;17.27;;;;;;;;;;4998359;28;20533;-76
2022/12/23 07:58:57;;;;;;;10.50;9.10;;;;;;;;;;4997088;28;20278;-75
2022/12/23 08:01:23;;;;;;;8.80;6.77;;;;;;;;;;4999336;28;20199;-74
2022/12/23 08:03:49;;;;;;;6.27;5.30;;;;;;;;;;5001045;28;20211;-73
2022/12/23 08:06:16;;;;;;;6.17;4.90;;;;;;;;;;4993505;28;20283;-74
2022/12/23 08:08:43;;;;;;;10.03;7.70;;;;;;;;;;4999062;28;20176;-74
2022/12/23 08:11:10;;;;;;;7.53;6.50;;;;;;;;;;4996850;28;20225;-75
2022/12/23 08:13:38;;;;;;;6.30;5.50;;;;;;;;;;4999588;28;20702;-75
2022/12/23 08:16:04;;;;;;;5.60;4.37;;;;;;;;;;4999678;28;20314;-74
2022/12/23 08:18:31;;;;;;;6.53;4.40;;;;;;;;;;5003490;28;20186;-74
2022/12/23 08:20:59;;;;;;;5.20;4.60;;;;;;;;;;5007583;28;20176;-74
2022/12/23 08:23:26;;;;;;;7.33;4.80;;;;;;;;;;4993119;28;20221;-74
2022/12/23 08:26:03;;;;;;;6.97;5.30;;;;;;;;;;4996385;28;20186;-74
2022/12/23 08:28:29;;;;;;;5.30;4.30;;;;;;;;;;4995741;28;20179;-73
2022/12/23 08:31:02;;;;;;;4.90;4.40;;;;;;;;;;4995917;28;20814;-77
2022/12/23 08:33:28;;;;;;;6.40;4.67;;;;;;;;;;4997530;28;20731;-73
2022/12/23 08:35:54;;;;;;;5.80;5.07;;;;;;;;;;4995795;28;20245;-74
2022/12/23 08:38:21;;;;;;;9.80;6.87;;;;;;;;;;4991710;28;20231;-75
2022/12/23 08:40:47;;;;;;;9.47;6.43;;;;;;;;;;4998538;28;20222;-74
2022/12/23 08:43:13;;;;;;;9.80;7.90;;;;;;;;;;4994466;28;20215;-76
2022/12/23 08:45:39;;;;;;;11.70;8.43;;;;;;;;;;4996805;28;20176;-76
2022/12/23 08:48:06;;;;;;;14.93;10.10;;;;;;;;;;5000842;28;20804;-74
2022/12/23 08:50:39;;;;;;;14.07;9.67;;;;;;;;;;4998889;28;20176;-74
2022/12/23 08:53:06;;;;;;;10.70;7.27;;;;;;;;;;4999029;28;20225;-73
2022/12/23 08:55:38;;;;;;;18.13;13.03;;;;;;;;;;5001266;28;20184;-73
2022/12/23 08:58:05;;;;;;;12.53;7.50;;;;;;;;;;5000959;28;20252;-78
2022/12/23 09:00:31;;;;;;;12.87;8.40;;;;;;;;;;4999632;28;20302;-73
2022/12/23 09:02:57;;;;;;;12.13;7.73;;;;;;;;;;5002196;28;20298;-76
2022/12/23 09:05:23;;;;;;;7.90;5.87;;;;;;;;;;5002115;28;20180;-78
2022/12/23 09:07:50;;;;;;;13.03;7.43;;;;;;;;;;4998809;28;20183;-79
2022/12/23 09:10:16;;;;;;;9.33;5.27;;;;;;;;;;5001494;28;20180;-80
2022/12/23 09:12:42;;;;;;;11.53;7.20;;;;;;;;;;4996562;28;20294;-76
2022/12/23 09:15:08;;;;;;;13.90;7.80;;;;;;;;;;5000047;28;20176;-82
2022/12/23 09:17:34;;;;;;;6.70;4.67;;;;;;;;;;5006099;28;20267;-81
2022/12/23 09:20:00;;;;;;;9.40;4.50;;;;;;;;;;5000466;28;20230;-76
2022/12/23 09:22:27;;;;;;;5.97;3.80;;;;;;;;;;4998200;28;20216;-73
2022/12/23 09:24:54;;;;;;;27.63;17.37;;;;;;;;;;5001488;28;20551;-79
2022/12/23 09:27:20;;;;;;;27.73;16.93;;;;;;;;;;5000848;28;20185;-78
2022/12/23 09:29:47;;;;;;;26.37;14.00;;;;;;;;;;5003929;28;20270;-77
2022/12/23 09:32:13;;;;;;;28.03;14.20;;;;;;;;;;5005090;28;20288;-77
2022/12/23 09:34:39;;;;;;;15.93;8.93;;;;;;;;;;5006430;28;20270;-77
2022/12/23 09:37:05;;;;;;;19.40;9.90;;;;;;;;;;5005434;28;20188;-78
2022/12/23 09:39:31;;;;;;;24.60;10.67;;;;;;;;;;5004508;28;20193;-78
2022/12/23 09:42:21;;;;;;;26.17;11.07;;;;;;;;;;5002100;28;20399;-77
2022/12/23 09:44:56;;;;;;;30.90;13.37;;;;;;;;;;5002294;28;20179;-78
2022/12/23 09:47:26;;;;;;;31.93;12.37;;;;;;;;;;4995509;28;20187;-77
2022/12/23 09:49:54;;;;;;;34.50;13.47;;;;;;;;;;4998641;28;20181;-79
2022/12/23 09:52:34;;;;;;;21.47;9.00;;;;;;;;;;4996481;28;20204;-78
2022/12/23 09:55:00;;;;;;;21.57;8.93;;;;;;;;;;5012563;28;20190;-77
2022/12/23 09:57:26;;;;;;;22.97;8.53;;;;;;;;;;5003753;28;20191;-77
2022/12/23 09:59:52;;;;;;;27.07;9.57;;;;;;;;;;5003059;28;20173;-77
2022/12/23 10:02:27;;;;;;;12.73;5.90;;;;;;;;;;4996624;28;20222;-77
2022/12/23 10:05:04;;;;;;;10.77;5.53;;;;;;;;;;4994566;28;20918;-77
2022/12/23 10:07:36;;;;;;;15.27;6.87;;;;;;;;;;5003901;28;20196;-77
2022/12/23 10:10:07;;;;;;;19.10;7.93;;;;;;;;;;5001345;28;20699;-76
2022/12/23 10:12:36;;;;;;;18.13;7.93;;;;;;;;;;5000320;28;20201;-77
2022/12/23 10:15:06;;;;;;;15.50;7.33;;;;;;;;;;4996148;28;20683;-78
2022/12/23 10:17:38;;;;;;;11.97;5.87;;;;;;;;;;4991338;28;20194;-77
2022/12/23 10:20:05;;;;;;;8.40;4.60;;;;;;;;;;5010546;28;20191;-77
2022/12/23 10:22:42;;;;;;;14.10;6.63;;;;;;;;;;5020707;28;20617;-77
2022/12/23 10:25:14;;;;;;;9.60;5.37;;;;;;;;;;5003332;28;20187;-77
2022/12/23 10:27:41;;;;;;;12.63;4.83;;;;;;;;;;5010118;28;20261;-80
2022/12/23 10:30:12;;;;;;;6.77;4.23;;;;;;;;;;5020571;28;20183;-76
2022/12/23 10:32:38;;;;;;;10.70;5.10;;;;;;;;;;5006555;28;20233;-77
2022/12/23 10:35:13;;;;;;;7.67;4.73;;;;;;;;;;5013210;28;20188;-77
2022/12/23 10:37:55;;;;;;;9.10;5.57;;;;;;;;;;4997426;28;20275;-77
2022/12/23 10:40:24;;;;;;;9.30;5.50;;;;;;;;;;4998416;28;20277;-77
2022/12/23 10:42:58;;;;;;;6.40;3.60;;;;;;;;;;4989854;28;20326;-77
2022/12/23 10:45:43;;;;;;;5.93;3.20;;;;;;;;;;5000741;28;20273;-77
2022/12/23 10:48:25;;;;;;;7.57;4.80;;;;;;;;;;5003029;28;20193;-78
2022/12/23 10:50:54;;;;;;;14.60;7.80;;;;;;;;;;5009052;28;20879;-77
2022/12/23 10:53:29;;;;;;;14.87;7.40;;;;;;;;;;4993635;28;20175;-77
2022/12/23 10:55:55;;;;;;;10.97;5.80;;;;;;;;;;5008700;28;20184;-78
2022/12/23 10:58:22;;;;;;;9.47;5.50;;;;;;;;;;5009676;28;20265;-77
2022/12/23 11:00:57;;;;;;;8.07;5.23;;;;;;;;;;5009088;28;20197;-77
2022/12/23 11:03:28;;;;;;;8.17;4.93;;;;;;;;;;4988999;28;20203;-77
2022/12/23 11:05:55;;;;;;;6.73;4.33;;;;;;;;;;4992253;28;20184;-77
2022/12/23 11:08:23;;;;;;;7.50;4.80;;;;;;;;;;4985087;28;20175;-77
2022/12/23 11:10:49;;;;;;;9.20;5.40;;;;;;;;;;5015683;28;20835;-78
2022/12/23 11:13:34;;;;;;;7.43;5.00;;;;;;;;;;5026813;28;20189;-77
2022/12/23 11:16:19;;;;;;;7.63;4.50;;;;;;;;;;5011548;28;20229;-77
2022/12/23 11:18:53;;;;;;;5.57;3.50;;;;;;;;;;5006238;28;20871;-76
2022/12/23 11:21:19;;;;;;;4.03;3.20;;;;;;;;;;4996903;28;20206;-78
2022/12/23 11:23:45;;;;;;;4.37;2.80;;;;;;;;;;5008590;28;20242;-76
2022/12/23 11:26:19;;;;;;;6.80;3.60;;;;;;;;;;5005430;28;20171;-76
2022/12/23 11:28:49;;;;;;;5.30;3.50;;;;;;;;;;5008219;28;20184;-76
2022/12/23 11:31:23;;;;;;;7.17;3.97;;;;;;;;;;4995565;28;20213;-76
2022/12/23 11:33:58;;;;;;;5.33;3.63;;;;;;;;;;4998835;28;20893;-76
2022/12/23 11:36:26;;;;;;;7.20;3.77;;;;;;;;;;5008365;28;20272;-76
2022/12/23 11:39:04;;;;;;;4.93;3.70;;;;;;;;;;5021491;28;20725;-78
2022/12/23 11:41:35;;;;;;;8.63;3.83;;;;;;;;;;4999410;28;20202;-77
2022/12/23 11:44:03;;;;;;;6.53;3.73;;;;;;;;;;4997844;28;20187;-77
2022/12/23 11:46:34;;;;;;;4.80;2.97;;;;;;;;;;4999949;28;20226;-77
2022/12/23 11:49:05;;;;;;;6.80;3.73;;;;;;;;;;5008628;28;20658;-76
2022/12/23 11:51:31;;;;;;;5.30;3.63;;;;;;;;;;5007649;28;20679;-76
2022/12/23 11:54:01;;;;;;;4.73;3.17;;;;;;;;;;5007903;28;20249;-76
2022/12/23 11:56:28;;;;;;;2.83;2.40;;;;;;;;;;4987076;28;20268;-76
2022/12/23 11:59:03;;;;;;;5.37;2.93;;;;;;;;;;5001183;28;20897;-77
2022/12/23 12:01:30;;;;;;;3.50;2.80;;;;;;;;;;5011069;28;20205;-79
2022/12/23 12:03:59;;;;;;;3.07;2.10;;;;;;;;;;5014803;28;20237;-79
2022/12/23 12:06:25;;;;;;;3.13;2.20;;;;;;;;;;5006617;28;20188;-78
2022/12/23 12:08:53;;;;;;;4.10;2.27;;;;;;;;;;5007243;28;20190;-78
2022/12/23 12:11:27;;;;;;;3.17;2.00;;;;;;;;;;5000400;28;20209;-79
2022/12/23 12:14:04;;;;;;;2.30;2.07;;;;;;;;;;5006489;28;20170;-79
2022/12/23 12:16:30;;;;;;;2.60;1.90;;;;;;;;;;5007323;28;20174;-78
2022/12/23 12:19:15;;;;;;;1.93;1.70;;;;;;;;;;4992416;28;20192;-78
2022/12/23 12:21:43;;;;;;;3.07;1.90;;;;;;;;;;4994573;28;20900;-78
2022/12/23 12:24:09;;;;;;;3.97;2.30;;;;;;;;;;4994419;28;20923;-78
2022/12/23 12:26:36;;;;;;;3.23;2.60;;;;;;;;;;5011083;28;20179;-77
2022/12/23 12:29:11;;;;;;;4.20;3.23;;;;;;;;;;5011732;28;20222;-78
2022/12/23 12:31:43;;;;;;;3.93;3.57;;;;;;;;;;5011189;28;20277;-78
2022/12/23 12:34:33;;;;;;;4.70;4.30;;;;;;;;;;5001503;28;20192;-75
2022/12/23 12:37:22;;;;;;;5.40;3.80;;;;;;;;;;5001559;28;20188;-77
2022/12/23 12:39:53;;;;;;;3.40;3.10;;;;;;;;;;4986163;28;20298;-79
2022/12/23 12:42:23;;;;;;;4.63;3.30;;;;;;;;;;4996483;28;20641;-79
2022/12/23 12:44:57;;;;;;;3.50;3.20;;;;;;;;;;4999385;28;20213;-79
2022/12/23 12:47:26;;;;;;;3.33;2.90;;;;;;;;;;5014731;28;20184;-77
2022/12/23 12:50:10;;;;;;;3.70;2.97;;;;;;;;;;5017257;28;20290;-78
2022/12/23 12:52:39;;;;;;;4.57;3.60;;;;;;;;;;4997843;28;20202;-80
2022/12/23 12:55:14;;;;;;;4.00;3.57;;;;;;;;;;4992784;28;20573;-78
2022/12/23 12:57:40;;;;;;;4.63;3.30;;;;;;;;;;5003305;28;20675;-79
2022/12/23 13:00:13;;;;;;;4.37;3.20;;;;;;;;;;5010453;28;20244;-76
2022/12/23 13:02:48;;;;;;;3.97;2.97;;;;;;;;;;5017920;28;20242;-77
2022/12/23 13:05:17;;;;;;;3.80;3.13;;;;;;;;;;5014667;28;20691;-78
2022/12/23 13:08:02;;;;;;;3.37;2.83;;;;;;;;;;5007934;28;20548;-72
2022/12/23 13:10:44;;;;;;;4.77;2.70;;;;;;;;;;5009968;28;20268;-73
2022/12/23 13:13:28;;;;;;;3.20;2.90;;;;;;;;;;5007608;28;20211;-74
2022/12/23 13:16:11;;;;;;;2.67;2.47;;;;;;;;;;5010845;28;20841;-75
2022/12/23 13:18:43;;;;;;;3.33;2.80;;;;;;;;;;4999967;28;20678;-74
2022/12/23 13:21:09;;;;;;;3.27;2.60;;;;;;;;;;4999229;28;20200;-75
2022/12/23 13:23:53;;;;;;;2.80;2.60;;;;;;;;;;5011816;28;20213;-74
2022/12/23 13:26:20;;;;;;;2.60;2.30;;;;;;;;;;5008430;28;20186;-73
2022/12/23 13:29:01;;;;;;;3.07;2.30;;;;;;;;;;5016707;28;20169;-72
2022/12/23 13:31:43;;;;;;;2.53;2.33;;;;;;;;;;5001590;28;20199;-73
2022/12/23 13:34:18;;;;;;;3.13;2.40;;;;;;;;;;5005018;28;20265;-77
2022/12/23 13:36:52;;;;;;;2.57;2.30;;;;;;;;;;4997374;28;20551;-73
2022/12/23 13:39:28;;;;;;;3.77;2.50;;;;;;;;;;5005666;28;20550;-71
2022/12/23 13:41:55;;;;;;;2.80;2.30;;;;;;;;;;4996693;28;20231;-72
2022/12/23 13:44:22;;;;;;;3.57;3.10;;;;;;;;;;5006690;28;20176;-72
2022/12/23 13:47:07;;;;;;;2.60;2.40;;;;;;;;;;5009451;28;20756;-72
2022/12/23 13:49:55;;;;;;;4.57;3.20;;;;;;;;;;5004694;28;20292;-72
2022/12/23 13:52:21;;;;;;;3.47;2.90;;;;;;;;;;4998539;28;20300;-74
2022/12/23 13:54:54;;;;;;;3.03;2.73;;;;;;;;;;5006662;28;20184;-74
2022/12/23 13:57:39;;;;;;;2.63;2.43;;;;;;;;;;5003889;28;20179;-75
2022/12/23 14:00:18;;;;;;;3.00;2.70;;;;;;;;;;4999110;28;20191;-73
2022/12/23 14:02:51;;;;;;;2.70;2.50;;;;;;;;;;5011175;28;20760;-74
2022/12/23 14:05:30;;;;;;;2.40;2.20;;;;;;;;;;4997646;28;20176;-74
2022/12/23 14:07:58;;;;;;;2.70;2.50;;;;;;;;;;4996033;28;20180;-74
2022/12/23 14:10:24;;;;;;;2.60;2.40;;;;;;;;;;5007825;28;20252;-74
2022/12/23 14:12:52;;;;;;;4.20;2.67;;;;;;;;;;5010124;28;20200;-72
2022/12/23 14:15:25;;;;;;;3.50;2.43;;;;;;;;;;5022559;28;20198;-73
2022/12/23 14:18:07;;;;;;;2.83;2.40;;;;;;;;;;4994025;28;20195;-74
2022/12/23 14:20:36;;;;;;;2.80;2.50;;;;;;;;;;5001872;28;20229;-72
2022/12/23 14:23:14;;;;;;;2.77;2.20;;;;;;;;;;5004499;28;20215;-72
2022/12/23 14:25:43;;;;;;;2.83;2.23;;;;;;;;;;5002047;28;20270;-73
2022/12/23 14:28:36;;;;;;;2.40;2.20;;;;;;;;;;5007571;28;20264;-72
2022/12/23 14:31:04;;;;;;;3.40;2.23;;;;;;;;;;5005472;28;20200;-73
2022/12/23 14:33:32;;;;;;;3.20;2.10;;;;;;;;;;5013450;28;20228;-72
2022/12/23 14:36:21;;;;;;;2.57;2.37;;;;;;;;;;5005092;28;20203;-72
2022/12/23 14:39:06;;;;;;;2.50;2.30;;;;;;;;;;4989506;28;20222;-72
2022/12/23 14:41:37;;;;;;;3.87;2.50;;;;;;;;;;4987879;28;20208;-72
2022/12/23 14:44:17;;;;;;;2.47;2.20;;;;;;;;;;4997699;28;20224;-72
2022/12/23 14:46:42;;;;;;;2.70;2.20;;;13.20;99.90;;;;;;4982219;28;20203;-72
2022/12/23 14:49:38;;;;;;;3.83;2.30;;;13.60;99.90;;;;;;5012161;28;20273;-73
2022/12/23 14:52:37;;;;;;;2.63;2.30;;;13.40;99.90;;;;;;5016004;28;20268;-73
2022/12/23 14:55:21;;;;;;;2.67;2.20;;;13.40;99.90;;;;;;5011764;28;20183;-72
2022/12/23 14:57:53;;;;;;;2.37;2.17;;;13.40;99.90;;;;;;4985009;28;20626;-72
2022/12/23 15:00:19;;;;;;;3.53;2.53;;;13.40;99.90;;;;;;5001110;28;20187;-73
2022/12/23 15:02:44;;;;;;;4.20;3.20;;;13.40;99.90;;;;;;4999584;28;20221;-72
2022/12/23 15:05:11;;;;;;;3.00;2.70;;;13.50;99.90;;;;;;5015191;28;20765;-73
2022/12/23 15:07:40;;;;;;;2.67;2.47;;;13.50;99.90;;;;;;5007602;28;20559;-74
2022/12/23 15:10:20;;;;;;;2.60;2.40;;;13.50;99.90;;;;;;5011109;28;20734;-72
2022/12/23 15:12:58;;;;;;;5.63;2.70;;;13.50;99.90;;;;;;4992514;28;20203;-74
2022/12/23 15:15:29;;;;;;;3.10;2.80;;;13.50;99.90;;;;;;5006692;28;20187;-72
2022/12/23 15:18:10;;;;;;;4.53;2.43;;;13.50;99.90;;;;;;5007455;28;20187;-73